hwlogo.jpg (8581 bytes)
Home Your Weather Products Services Weather On Your Site Contact
HW Version Logo
Weather Info
Your Weather (Options)
Canadian Weather
International Weather
Enter your " Place, State", US Zip Code or ICAO:  
Forecast Information Radar Information
Havre St Pierre, Canada  Lat: 50.28N, Lon: 63.62W
ICAO Used: CYGV
Current Conditions
Updated: 11:53 AM GMT-7 THU FEB 22 2018
Sun & Moon Information
Mostly Clear
Mostly Clear
Temp: -11°C
Humidity: 61%
Wind Speed: W 17 MPH G 28
Barometer: 1030 mb
Dewpoint: -17°C
Heat Index: -11°C
Wind Chill: -21°C
Civil Twilight: 3:42 AM GMT-7 Moon Phase:
Waxing Gibbous Moon
Sunrise: 4:15 AM GMT-7
Sunset: 2:40 PM GMT-7
Civil Twilight: 3:13 PM GMT-7
Forecast for Havre St Pierre, Canada:
(Forecast based on TAF for )
0100 PM GMT-7 THU FEB 22 2018
  
AFTERNOON EVENING
Mostly
Cloudy
Mostly
Cloudy
ZoneCast:
Dated: 0100 PM GMT-7 THU FEB 22 2018
Afternoon...Mostly cloudy winds variable in direction at 3 mph.

Evening...Mostly cloudy winds variable in direction at 3 mph.

Original Encoded TAF:
Dated: 0100 PM GMT-7 THU FEB 22 2018
2018/02/22 20:00
TAF CYGV 201938Z 2020/2108 VRB03KT P6SM SCT130 BKN250 
     FM210000 04012G22KT P6SM BKN120 
     FM210300 07012G22KT P6SM -SN OVC080 
      TEMPO 2103/2106 2SM -SN OVC040 
     FM210600 07012G22KT 1SM -SN OVC010 
      TEMPO 2106/2108 3SM -SN 
      RMK FCST BASED ON AUTO OBS. NXT FCST BY 210200Z